Time;durP1;ratioP1;P1;durP2;ratioP2;P2;SDS_P1;SDS_P2;PMS_P1;PMS_P2;Temp;Humidity;BMP_temperature;BMP_pressure;BME280_temperature;BME280_humidity;BME280_pressure;Samples;Min_cycle;Max_cycle;Signal;HPM_P1;HPM_P2
2022/08/13 00:00:37;;;;;;;3.28;1.58;;;;;;;22.79;nan;99509.16;4972538;28;20037;-81
2022/08/13 00:03:09;;;;;;;4.68;2.00;;;;;;;22.70;nan;99515.81;4955760;28;20058;-81
2022/08/13 00:05:35;;;;;;;3.58;1.63;;;;;;;22.67;nan;99517.09;4972856;28;20031;-81
2022/08/13 00:08:01;;;;;;;2.20;1.70;;;;;;;22.68;nan;99512.53;4973376;28;20033;-80
2022/08/13 00:10:30;;;;;;;2.10;1.77;;;;;;;22.61;nan;99511.78;4955016;28;20073;-81
2022/08/13 00:13:03;;;;;;;2.17;1.80;;;;;;;22.48;nan;99515.41;4971225;28;20388;-80
2022/08/13 00:15:43;;;;;;;3.58;1.60;;;;;;;22.45;nan;99519.34;4972771;28;20071;-81
2022/08/13 00:18:16;;;;;;;3.08;1.60;;;;;;;22.48;nan;99518.09;4972546;28;20451;-81
2022/08/13 00:20:51;;;;;;;2.67;1.80;;;;;;;22.43;nan;99521.44;4968732;28;20562;-82
2022/08/13 00:23:18;;;;;;;2.75;2.22;;;;;;;22.38;nan;99523.94;4969872;28;20039;-81
2022/08/13 00:25:47;;;;;;;4.40;1.73;;;;;;;22.36;nan;99509.94;4971964;28;20070;-81
2022/08/13 00:28:18;;;;;;;4.72;1.85;;;;;;;22.35;nan;99516.34;4968878;28;20108;-82
2022/08/13 00:30:46;;;;;;;2.78;1.50;;;;;;;22.28;nan;99517.44;4969101;28;20053;-82
2022/08/13 00:33:18;;;;;;;4.07;2.00;;;;;;;22.26;nan;99525.72;4954460;28;20069;-82
2022/08/13 00:35:47;;;;;;;1.83;1.70;;;;;;;22.07;nan;99532.06;4969587;28;20035;-82
2022/08/13 00:38:16;;;;;;;1.73;1.30;;;;;;;22.06;nan;99530.41;4971235;28;20047;-81
2022/08/13 00:40:46;;;;;;;3.05;1.80;;;;;;;22.05;nan;99526.09;4968358;28;20023;-81
2022/08/13 00:43:12;;;;;;;3.42;1.60;;;;;;;22.07;nan;99515.13;4952915;28;20570;-82
2022/08/13 00:45:38;;;;;;;1.60;1.50;;;;;;;22.06;nan;99525.03;4971565;28;20145;-82
2022/08/13 00:50:50;;;;;;;2.10;1.50;;;;;;;21.87;nan;99515.22;4972035;28;20449;-81
2022/08/13 00:53:17;;;;;;;1.88;1.30;;;;;;;21.83;nan;99516.69;4972513;28;20066;-82
2022/08/13 00:55:46;;;;;;;1.63;1.40;;;;;;;21.83;nan;99508.63;4971777;28;20503;-82
2022/08/13 00:58:15;;;;;;;2.80;1.35;;;;;;;21.79;nan;99518.19;4971969;28;20038;-82
2022/08/13 01:00:41;;;;;;;3.42;1.67;;;;;;;21.77;nan;99509.50;4971340;28;20402;-82
2022/08/13 01:03:08;;;;;;;1.75;1.40;;;;;;;21.72;nan;99528.97;4958115;28;20445;-82
2022/08/13 01:05:35;;;;;;;3.85;1.52;;;;;;;21.64;nan;99516.59;4975284;28;20033;-82
2022/08/13 01:08:01;;;;;;;9.20;2.33;;;;;;;21.57;nan;99510.44;4975584;28;20034;-82
2022/08/13 01:10:27;;;;;;;1.58;1.48;;;;;;;21.56;nan;99516.00;4975446;28;20475;-81
2022/08/13 01:12:54;;;;;;;2.90;1.38;;;;;;;21.49;nan;99524.13;4974770;28;20077;-80
2022/08/13 01:15:23;;;;;;;1.60;1.50;;;;;;;21.40;nan;99516.50;4971050;28;20034;-81
2022/08/13 01:17:53;;;;;;;1.75;1.30;;;;;;;21.39;nan;99501.44;4974767;28;20446;-81
2022/08/13 01:20:21;;;;;;;1.50;1.40;;;;;;;21.32;nan;99501.50;4975506;28;20372;-81
2022/08/13 01:22:52;;;;;;;2.78;1.40;;;;;;;21.33;nan;99508.47;4974882;28;20113;-80
2022/08/13 01:25:21;;;;;;;1.67;1.27;;;;;;;21.29;nan;99512.63;4971610;28;20033;-81
2022/08/13 01:27:49;;;;;;;2.03;1.40;;;;;;;21.29;nan;99518.00;4953322;28;20470;-80
2022/08/13 01:30:19;;;;;;;1.40;1.30;;;;;;;21.32;nan;99522.97;4974348;28;20384;-82
2022/08/13 01:32:46;;;;;;;1.58;1.23;;;;;;;21.37;nan;99516.94;4952913;28;20046;-82
2022/08/13 01:35:13;;;;;;;3.13;1.40;;;;;;;21.39;nan;99529.09;4970693;28;20042;-82
2022/08/13 01:37:40;;;;;;;2.38;1.20;;;;;;;21.41;nan;99526.22;4974574;28;20038;-82
2022/08/13 01:40:08;;;;;;;2.55;1.48;;;;;;;21.42;nan;99528.69;4975018;28;20090;-82
2022/08/13 01:42:44;;;;;;;3.45;1.50;;;;;;;21.39;nan;99531.78;4974590;28;20388;-82
2022/08/13 01:45:11;;;;;;;1.75;1.65;;;;;;;21.37;nan;99533.88;4974574;28;20383;-82
2022/08/13 01:50:31;;;;;;;1.50;1.38;;;;;;;21.39;nan;99536.31;4957885;28;20114;-82
2022/08/13 01:53:03;;;;;;;1.60;1.50;;;;;;;21.38;nan;99538.22;4974890;28;20395;-82
2022/08/13 01:55:42;;;;;;;1.65;1.52;;;;;;;21.40;nan;99535.28;4974355;28;20442;-82
2022/08/13 01:58:14;;;;;;;1.85;1.40;;;;;;;21.41;nan;99537.78;4974155;28;20043;-82
2022/08/13 02:00:44;;;;;;;1.67;1.30;;;;;;;21.42;nan;99539.44;4973846;28;20438;-82
2022/08/13 02:03:16;;;;;;;2.72;1.38;;;;;;;21.43;nan;99545.63;4974485;28;20041;-80
2022/08/13 02:05:42;;;;;;;1.88;1.58;;;;;;;21.46;nan;99551.38;4970326;28;20189;-82
2022/08/13 02:08:09;;;;;;;1.65;1.30;;;;;;;21.45;nan;99548.91;4974375;28;20090;-82
2022/08/13 02:10:41;;;;;;;1.55;1.33;;;;;;;21.47;nan;99558.41;4973814;28;20035;-81
2022/08/13 02:13:11;;;;;;;2.30;1.58;;;;;;;21.55;nan;99558.16;4942411;28;20046;-81
2022/08/13 02:15:38;;;;;;;1.40;1.30;;;;;;;21.51;nan;99564.97;4973501;28;20039;-82
2022/08/13 02:18:04;;;;;;;1.38;1.27;;;;;;;21.53;nan;99562.91;4974376;28;20391;-82
2022/08/13 02:20:34;;;;;;;1.52;1.42;;;;;;;21.54;nan;99564.56;4974227;28;20034;-82
2022/08/13 02:23:00;;;;;;;1.50;1.25;;;;;;;21.58;nan;99565.78;4974432;28;20434;-82
2022/08/13 02:25:28;;;;;;;1.77;1.65;;;;;;;21.63;nan;99557.91;4975028;28;20106;-82
2022/08/13 02:27:56;;;;;;;1.52;1.30;;;;;;;21.63;nan;99552.53;4974099;28;20110;-81
2022/08/13 02:30:26;;;;;;;1.50;1.40;;;;;;;21.61;nan;99565.38;4974444;28;20390;-82
2022/08/13 02:32:52;;;;;;;1.40;1.30;;;;;;;21.60;nan;99558.34;4973613;28;20117;-82
2022/08/13 02:35:18;;;;;;;1.48;1.38;;;;;;;21.62;nan;99566.16;4974447;28;20425;-82
2022/08/13 02:37:47;;;;;;;1.30;1.10;;;;;;;21.62;nan;99576.91;4973452;28;20039;-82
2022/08/13 02:42:59;;;;;;;1.30;1.20;;;;;;;21.65;nan;99576.50;4974035;28;20061;-82
2022/08/13 02:45:26;;;;;;;3.53;1.38;;;;;;;21.68;nan;99578.75;4973237;28;20042;-82
2022/08/13 02:47:53;;;;;;;1.50;1.40;;;;;;;21.70;nan;99578.53;4972680;28;20373;-82
2022/08/13 02:50:20;;;;;;;2.00;1.60;;;;;;;21.70;nan;99575.84;4971441;28;20027;-81
2022/08/13 02:52:52;;;;;;;1.70;1.60;;;;;;;21.70;nan;99570.47;4972589;28;20038;-82
2022/08/13 02:55:19;;;;;;;1.50;1.40;;;;;;;21.68;nan;99576.06;4973964;28;20027;-82
2022/08/13 02:57:46;;;;;;;1.52;1.33;;;;;;;21.73;nan;99583.50;4972511;28;20035;-82
2022/08/13 03:00:14;;;;;;;2.67;1.83;;;;;;;21.75;nan;99570.66;4972486;28;20399;-81
2022/08/13 03:02:44;;;;;;;1.98;1.48;;;;;;;21.72;nan;99576.47;4972466;28;20031;-81
2022/08/13 03:05:14;;;;;;;1.70;1.40;;;;;;;21.73;nan;99578.94;4973408;28;20162;-81
2022/08/13 03:07:42;;;;;;;1.85;1.50;;;;;;;21.69;nan;99580.41;4973216;28;20034;-81
2022/08/13 03:10:13;;;;;;;1.30;1.23;;;;;;;21.65;nan;99576.50;4973382;28;20031;-81
2022/08/13 03:12:41;;;;;;;1.67;1.50;;;;;;;21.68;nan;99570.69;4972335;28;20388;-82
2022/08/13 03:15:12;;;;;;;1.45;1.35;;;;;;;21.59;nan;99574.66;4960915;28;20039;-81
2022/08/13 03:17:40;;;;;;;1.70;1.60;;;;;;;21.61;nan;99576.13;4972243;28;20407;-81
2022/08/13 03:20:08;;;;;;;1.38;1.30;;;;;;;21.57;nan;99568.69;4972818;28;20356;-80
2022/08/13 03:22:51;;;;;;;1.40;1.30;;;;;;;21.54;nan;99569.94;4972414;28;20468;-82
2022/08/13 03:25:17;;;;;;;1.35;1.25;;;;;;;21.54;nan;99567.25;4969796;28;20395;-80
2022/08/13 03:27:44;;;;;;;1.50;1.33;;;;;;;21.57;nan;99569.50;4972723;28;20034;-81
2022/08/13 03:30:11;;;;;;;1.52;1.42;;;;;;;21.60;nan;99569.09;4973241;28;20027;-80
2022/08/13 03:32:44;;;;;;;1.58;1.40;;;;;;;21.62;nan;99577.75;4972583;28;20035;-81
2022/08/13 03:35:25;;;;;;;1.55;1.45;;;;;;;21.61;nan;99572.59;4973177;28;20388;-81
2022/08/13 03:37:54;;;;;;;2.38;1.27;;;;;;;21.58;nan;99576.53;4971225;28;20046;-81
2022/08/13 03:40:23;;;;;;;1.30;1.20;;;;;;;21.61;nan;99573.44;4972942;28;20027;-81
2022/08/13 03:42:50;;;;;;;1.85;1.55;;;;;;;21.59;nan;99572.81;4972450;28;20042;-81
2022/08/13 03:45:17;;;;;;;1.30;1.30;;;;;;;21.50;nan;99571.38;4972820;28;20038;-79
2022/08/13 03:47:44;;;;;;;1.30;1.20;;;;;;;21.44;nan;99568.75;4970901;28;20039;-81
2022/08/13 03:50:12;;;;;;;1.25;1.15;;;;;;;21.43;nan;99567.94;4972060;28;20035;-81
2022/08/13 03:52:38;;;;;;;1.40;1.30;;;;;;;21.42;nan;99581.56;4972731;28;20107;-81
2022/08/13 03:55:13;;;;;;;1.40;1.30;;;;;;;21.33;nan;99567.53;4972756;28;20453;-81
2022/08/13 03:57:41;;;;;;;1.30;1.20;;;;;;;21.20;nan;99575.66;4971800;28;20034;-81
2022/08/13 04:00:11;;;;;;;1.60;1.40;;;;;;;21.21;nan;99569.22;4972721;28;20081;-80
2022/08/13 04:02:41;;;;;;;1.50;1.30;;;;;;;21.24;nan;99569.63;4972177;28;20034;-82
2022/08/13 04:05:13;;;;;;;1.60;1.50;;;;;;;21.25;nan;99565.09;4972367;28;20494;-81
2022/08/13 04:07:39;;;;;;;1.70;1.60;;;;;;;21.20;nan;99571.09;4971314;28;20026;-81
2022/08/13 04:10:06;;;;;;;1.38;1.27;;;;;;;21.21;nan;99569.22;4972596;28;20467;-80
2022/08/13 04:12:32;;;;;;;2.15;1.60;;;;;;;21.23;nan;99572.53;4971755;28;20126;-81
2022/08/13 04:14:59;;;;;;;1.38;1.35;;;;;;;21.20;nan;99564.91;4970847;28;20392;-81
2022/08/13 04:17:24;;;;;;;1.98;1.40;;;;;;;21.20;nan;99564.91;4971561;28;20031;-82
2022/08/13 04:19:50;;;;;;;1.70;1.40;;;;;;;21.20;nan;99556.84;4954618;28;20045;-81
2022/08/13 04:22:17;;;;;;;2.97;1.42;;;;;;;21.22;nan;99554.78;4972565;28;20170;-81
2022/08/13 04:24:42;;;;;;;1.55;1.40;;;;;;;21.28;nan;99559.28;4971464;28;20031;-82
2022/08/13 04:27:08;;;;;;;1.45;1.35;;;;;;;21.29;nan;99555.56;4972499;28;20030;-81
2022/08/13 04:29:33;;;;;;;1.70;1.60;;;;;;;21.30;nan;99567.97;4972588;28;20027;-81
2022/08/13 04:32:02;;;;;;;1.75;1.40;;;;;;;21.28;nan;99564.66;4956220;28;20037;-81
2022/08/13 04:34:28;;;;;;;1.50;1.40;;;;;;;21.30;nan;99564.44;4973142;28;20023;-81
2022/08/13 04:36:55;;;;;;;1.98;1.77;;;;;;;21.30;nan;99562.59;4976037;28;20090;-80
2022/08/13 04:39:21;;;;;;;2.38;1.63;;;;;;;21.30;nan;99561.78;4976369;28;20031;-79
2022/08/13 04:41:47;;;;;;;1.55;1.45;;;;;;;21.33;nan;99567.53;4975700;28;20133;-81
2022/08/13 04:44:12;;;;;;;1.80;1.70;;;;;;;21.33;nan;99556.78;4971854;28;20090;-82
2022/08/13 04:46:39;;;;;;;1.50;1.40;;;;;;;21.35;nan;99554.72;4975426;28;20037;-81
2022/08/13 04:49:06;;;;;;;1.92;1.40;;;;;;;21.36;nan;99561.75;4976442;28;20399;-80
2022/08/13 04:51:34;;;;;;;1.60;1.50;;;;;;;21.36;nan;99559.06;4976015;28;20034;-81
2022/08/13 04:54:01;;;;;;;1.40;1.30;;;;;;;21.40;nan;99562.97;4976317;28;20037;-81
2022/08/13 04:56:27;;;;;;;2.25;1.58;;;;;;;21.32;nan;99565.06;4976363;28;20034;-81
2022/08/13 04:58:53;;;;;;;3.65;1.60;;;;;;;21.26;nan;99555.19;4975595;28;20100;-82
2022/08/13 05:01:18;;;;;;;1.85;1.65;;;;;;;21.19;nan;99561.41;4976524;28;20034;-81
2022/08/13 05:03:47;;;;;;;2.10;1.40;;;;;;;21.19;nan;99564.09;4976903;28;20114;-82
2022/08/13 05:06:19;;;;;;;1.50;1.40;;;;;;;21.19;nan;99555.22;4973838;28;20060;-81
2022/08/13 05:08:46;;;;;;;1.60;1.50;;;;;;;21.19;nan;99566.78;4958464;28;20031;-81
2022/08/13 05:11:12;;;;;;;1.70;1.60;;;;;;;21.14;nan;99563.03;4976036;28;20113;-81
2022/08/13 05:13:39;;;;;;;2.05;1.83;;;;;;;21.08;nan;99558.50;4975407;28;20377;-81
2022/08/13 05:16:08;;;;;;;2.67;2.10;;;;;;;21.01;nan;99558.53;4975636;28;20035;-80
2022/08/13 05:18:37;;;;;;;2.40;2.20;;;;;;;20.90;nan;99561.03;4975026;28;20389;-81
2022/08/13 05:21:05;;;;;;;3.22;2.92;;;;;;;20.81;nan;99555.88;4975226;28;20027;-81
2022/08/13 05:23:34;;;;;;;4.82;3.90;;;;;;;20.75;nan;99554.00;4975112;28;20511;-82
2022/08/13 05:26:00;;;;;;;6.63;4.43;;;;;;;20.70;nan;99561.88;4974979;28;20442;-82
2022/08/13 05:28:26;;;;;;;5.63;4.70;;;;;;;20.62;nan;99564.75;4975271;28;20114;-81
2022/08/13 05:30:52;;;;;;;6.80;5.00;;;;;;;20.58;nan;99566.19;4976059;28;20387;-81
2022/08/13 05:33:24;;;;;;;6.10;4.32;;;;;;;20.56;nan;99556.72;4975133;28;20027;-83
2022/08/13 05:35:55;;;;;;;5.75;4.38;;;;;;;20.58;nan;99558.16;4975711;28;20197;-82
2022/08/13 05:38:23;;;;;;;5.75;3.90;;;;;;;20.69;nan;99564.75;4975789;28;20395;-82
2022/08/13 05:41:04;;;;;;;7.93;4.10;;;;;;;20.68;nan;99565.78;4974931;28;20415;-82
2022/08/13 05:43:35;;;;;;;6.68;4.55;;;;;;;20.67;nan;99567.66;4973954;28;20038;-82
2022/08/13 05:46:05;;;;;;;5.10;3.05;;;;;;;20.73;nan;99572.19;4974208;28;20061;-81
2022/08/13 05:48:34;;;;;;;5.90;3.00;;;;;;;20.81;nan;99571.13;4975320;28;20089;-82
2022/08/13 05:51:03;;;;;;;3.40;2.80;;;;;;;20.85;nan;99570.50;4975817;28;20031;-82
2022/08/13 05:53:31;;;;;;;3.85;2.92;;;;;;;20.92;nan;99570.50;4975514;28;20031;-82
2022/08/13 05:55:57;;;;;;;4.32;2.30;;;;;;;20.99;nan;99562.44;4975426;28;20401;-82
2022/08/13 05:58:23;;;;;;;2.97;2.50;;;;;;;21.01;nan;99563.88;4975146;28;20493;-81
2022/08/13 06:03:36;;;;;;;3.63;2.25;;;;;;;20.71;nan;99563.53;4975315;28;20395;-80
2022/08/13 06:06:05;;;;;;;2.90;2.58;;;;;;;20.67;nan;99562.28;4975442;28;20030;-81
2022/08/13 06:08:37;;;;;;;3.45;2.70;;;;;;;20.69;nan;99557.53;4975108;28;20031;-81
2022/08/13 06:11:22;;;;;;;2.60;2.22;;;;;;;20.72;nan;99559.81;4976155;28;20387;-83
2022/08/13 06:13:48;;;;;;;2.47;2.03;;;;;;;20.78;nan;99555.47;4974464;28;20920;-83
2022/08/13 06:16:20;;;;;;;2.00;1.90;;;;;;;20.84;nan;99560.81;4975518;28;20411;-80
2022/08/13 06:18:48;;;;;;;2.05;1.83;;;;;;;20.90;nan;99561.03;4971668;28;20042;-83
2022/08/13 06:21:16;;;;;;;2.05;1.85;;;;;;;20.95;nan;99559.34;4974054;28;20034;-81
2022/08/13 06:23:44;;;;;;;1.92;1.70;;;;;;;21.03;nan;99561.81;4970848;28;20078;-82
2022/08/13 06:26:12;;;;;;;1.92;1.83;;;;;;;21.10;nan;99567.97;4974717;28;20394;-80
2022/08/13 06:28:42;;;;;;;1.60;1.50;;;;;;;21.17;nan;99573.38;4974156;28;20037;-82
2022/08/13 06:31:13;;;;;;;1.42;1.30;;;;;;;21.22;nan;99570.88;4955185;28;20141;-82
2022/08/13 06:33:40;;;;;;;2.08;1.42;;;;;;;21.25;nan;99573.16;4973744;28;20027;-82
2022/08/13 06:36:09;;;;;;;2.10;1.30;;;;;;;21.29;nan;99571.69;4973321;28;20030;-81
2022/08/13 06:38:42;;;;;;;1.40;1.30;;;;;;;21.34;nan;99574.56;4973768;28;20039;-81
2022/08/13 06:41:10;;;;;;;1.45;1.35;;;;;;;21.37;nan;99574.13;4973629;28;20039;-79
2022/08/13 06:43:42;;;;;;;1.15;1.15;;;;;;;21.38;nan;99583.84;4972087;28;20061;-80
2022/08/13 06:46:10;;;;;;;1.40;1.30;;;;;;;21.46;nan;99588.13;4973889;28;20035;-82
2022/08/13 06:48:39;;;;;;;2.72;1.63;;;;;;;21.47;nan;99584.41;4973209;28;20392;-81
2022/08/13 06:51:07;;;;;;;1.30;1.20;;;;;;;21.49;nan;99588.56;4974011;28;20093;-81
2022/08/13 06:53:39;;;;;;;1.80;1.30;;;;;;;21.55;nan;99582.34;4973679;28;20463;-81
2022/08/13 06:56:11;;;;;;;1.50;1.40;;;;;;;21.61;nan;99581.50;4973972;28;20106;-80
2022/08/13 06:58:37;;;;;;;1.40;1.30;;;;;;;21.64;nan;99585.59;4954539;28;20054;-81
2022/08/13 07:01:04;;;;;;;3.40;1.50;;;;;;;21.65;nan;99587.25;4973586;28;20034;-79
2022/08/13 07:03:33;;;;;;;1.50;1.40;;;;;;;21.65;nan;99585.38;4973441;28;20031;-80
2022/08/13 07:06:00;;;;;;;1.45;1.30;;;;;;;21.63;nan;99589.31;4973511;28;20039;-82
2022/08/13 07:08:27;;;;;;;1.48;1.38;;;;;;;21.66;nan;99591.59;4973583;28;20027;-81
2022/08/13 07:13:43;;;;;;;1.95;1.20;;;;;;;21.74;nan;99590.50;4974318;28;20046;-81
2022/08/13 07:16:12;;;;;;;1.30;1.20;;;;;;;21.76;nan;99601.84;4973427;28;20054;-80
2022/08/13 07:18:38;;;;;;;1.80;1.10;;;;;;;21.74;nan;99596.69;4973706;28;20039;-80
2022/08/13 07:21:09;;;;;;;1.10;1.00;;;;;;;21.77;nan;99595.44;4974046;28;20034;-81
2022/08/13 07:23:39;;;;;;;1.20;1.08;;;;;;;21.83;nan;99583.84;4973579;28;20034;-80
2022/08/13 07:26:08;;;;;;;1.50;1.40;;;;;;;21.87;nan;99587.75;4973735;28;20053;-81
2022/08/13 07:28:34;;;;;;;1.25;1.25;;;;;;;22.00;nan;99587.72;4973646;28;20026;-81
2022/08/13 07:31:02;;;;;;;1.20;1.20;;;;;;;22.19;nan;99588.63;4973447;28;20031;-80
2022/08/13 07:33:28;;;;;;;2.63;1.25;;;;;;;22.36;nan;99589.75;4973837;28;20033;-83
2022/08/13 07:35:54;;;;;;;1.02;1.02;;;;;;;22.44;nan;99587.59;4973654;28;20113;-80
2022/08/13 07:38:19;;;;;;;1.38;1.05;;;;;;;22.61;nan;99582.53;4973240;28;20027;-80
2022/08/13 07:40:55;;;;;;;4.07;1.25;;;;;;;22.70;nan;99591.13;4973139;28;20039;-76
2022/08/13 07:43:23;;;;;;;2.35;1.10;;;;;;;22.82;nan;99584.84;4938387;28;20027;-77
2022/08/13 07:46:15;;;;;;;0.98;0.98;;;;;;;22.97;nan;99592.59;4973562;28;20038;-79
2022/08/13 07:48:43;;;;;;;1.55;1.30;;;;;;;23.04;nan;99590.63;4972822;28;20038;-79
2022/08/13 07:51:15;;;;;;;1.02;0.98;;;;;;;23.01;nan;99591.09;4972935;28;20067;-79
2022/08/13 07:53:41;;;;;;;1.33;1.20;;;;;;;23.03;nan;99588.97;4972560;28;20027;-81
2022/08/13 07:56:08;;;;;;;1.05;1.05;;;;;;;23.08;nan;99602.63;4972703;28;20049;-80
2022/08/13 07:58:37;;;;;;;1.70;1.60;;;;;;;23.13;nan;99594.69;4954665;28;20035;-80
2022/08/13 08:01:04;;;;;;;1.50;1.33;;;;;;;23.15;nan;99600.66;4971526;28;20031;-78
2022/08/13 08:03:42;;;;;;;3.17;1.40;;;;;;;23.15;nan;99602.56;4972385;28;20040;-79
2022/08/13 08:06:15;;;;;;;2.70;1.58;;;;;;;23.13;nan;99589.31;4972086;28;20046;-79
2022/08/13 08:08:42;;;;;;;1.98;1.42;;;;;;;23.16;nan;99596.94;4955405;28;20031;-80
2022/08/13 08:12:30;;;;;;;3.72;1.40;;;;;;;23.15;nan;99595.28;4976344;28;20408;-79
2022/08/13 08:13:59;;;;;;;1.77;1.10;;;;;;;23.09;nan;99600.75;4975857;28;20054;-79
2022/08/13 08:16:29;;;;;;;1.27;1.17;;;;;;;23.00;nan;99591.31;4976074;28;20042;-80
2022/08/13 08:18:55;;;;;;;3.38;1.10;;;;;;;22.81;nan;99587.75;4976077;28;20096;-81
2022/08/13 08:21:23;;;;;;;2.38;1.30;;;;;;;22.57;nan;99588.53;4976322;28;20105;-79
2022/08/13 08:23:52;;;;;;;1.48;1.38;;;;;;;22.48;nan;99589.88;4976111;28;20502;-79
2022/08/13 08:26:19;;;;;;;1.48;1.35;;;;;;;22.47;nan;99591.72;4976139;28;20034;-81
2022/08/13 08:28:46;;;;;;;1.55;1.30;;;;;;;22.43;nan;99588.66;4975875;28;20035;-80
2022/08/13 08:31:11;;;;;;;3.50;1.65;;;;;;;22.46;nan;99590.91;4976017;28;20061;-79
2022/08/13 08:33:41;;;;;;;4.50;1.35;;;;;;;22.59;nan;99583.78;4975621;28;20038;-79
2022/08/13 08:36:09;;;;;;;1.42;1.33;;;;;;;22.48;nan;99581.81;4976129;28;20537;-81
2022/08/13 08:44:20;;;;;;;2.38;1.38;;;;;;;22.72;nan;99570.25;4975309;28;20077;-80
2022/08/13 08:46:47;;;;;;;1.63;1.52;;;;;;;22.87;nan;99559.97;4975503;28;20034;-79
2022/08/13 08:49:15;;;;;;;1.38;1.13;;;;;;;23.01;nan;99560.66;4975774;28;20038;-80
2022/08/13 08:51:42;;;;;;;2.80;1.63;;;;;;;23.04;nan;99560.19;4975459;28;20027;-80
2022/08/13 08:54:08;;;;;;;3.10;1.60;;;;;;;23.01;nan;99561.50;4975724;28;20045;-81
2022/08/13 08:56:34;;;;;;;3.00;1.50;;;;;;;22.99;nan;99558.19;4975461;28;20082;-80
2022/08/13 08:59:02;;;;;;;1.40;1.17;;;;;;;22.99;nan;99558.19;4975292;28;20077;-79
2022/08/13 09:01:33;;;;;;;1.52;1.40;;;;;;;22.99;nan;99554.66;4975661;28;20502;-80
2022/08/13 09:04:05;;;;;;;2.50;1.50;;;;;;;23.05;nan;99551.91;4976027;28;20129;-79
2022/08/13 09:06:32;;;;;;;1.52;1.10;;;;;;;23.14;nan;99555.97;4976579;28;20037;-80
2022/08/13 09:09:00;;;;;;;1.42;1.30;;;;;;;23.24;nan;99556.25;4977131;28;20479;-80
2022/08/13 09:11:29;;;;;;;1.20;1.10;;;;;;;23.36;nan;99547.44;4976643;28;20395;-81
2022/08/13 09:13:55;;;;;;;1.17;1.10;;;;;;;23.48;nan;99548.34;4976227;28;20522;-81
2022/08/13 09:16:23;;;;;;;2.90;1.50;;;;;;;23.60;nan;99544.66;4976448;28;20034;-80
2022/08/13 09:18:49;;;;;;;1.52;1.10;;;;;;;23.74;nan;99545.28;4975699;28;20049;-82
2022/08/13 09:21:15;;;;;;;1.35;1.25;;;;;;;23.81;nan;99534.44;4975104;28;20027;-80
2022/08/13 09:23:46;;;;;;;1.27;1.10;;;;;;;23.95;nan;99546.69;4975199;28;20477;-80
2022/08/13 09:26:15;;;;;;;0.98;0.93;;;;;;;23.98;nan;99536.25;4975887;28;20038;-79
2022/08/13 09:28:42;;;;;;;0.90;0.90;;;;;;;24.01;nan;99538.50;4957804;28;20337;-79
2022/08/13 09:31:10;;;;;;;1.95;1.10;;;;;;;24.08;nan;99536.53;4976611;28;20501;-78
2022/08/13 09:33:38;;;;;;;0.93;0.93;;;;;;;24.17;nan;99538.88;4957542;28;20118;-80
2022/08/13 09:36:10;;;;;;;1.17;0.90;;;;;;;24.22;nan;99530.94;4958018;28;20035;-80
2022/08/13 09:38:37;;;;;;;2.05;1.02;;;;;;;24.26;nan;99532.13;4975090;28;20471;-80
2022/08/13 09:41:23;;;;;;;1.08;0.98;;;;;;;24.33;nan;99527.44;4957688;28;20041;-79
2022/08/13 09:43:49;;;;;;;0.82;0.82;;;;;;;24.33;nan;99530.13;4971512;28;20570;-79
2022/08/13 09:46:21;;;;;;;1.00;1.00;;;;;;;24.31;nan;99524.16;4974444;28;20035;-79
2022/08/13 09:48:50;;;;;;;1.40;1.08;;;;;;;24.26;nan;99521.34;4971224;28;20038;-80
2022/08/13 09:51:16;;;;;;;1.23;1.10;;;;;;;24.23;nan;99517.22;4971691;28;20023;-81
2022/08/13 09:53:46;;;;;;;1.58;0.90;;;;;;;24.24;nan;99515.38;4957720;28;20542;-80
2022/08/13 09:56:15;;;;;;;1.50;0.93;;;;;;;24.31;nan;99513.38;4974902;28;20113;-81
2022/08/13 09:58:41;;;;;;;0.85;0.85;;;;;;;24.39;nan;99510.31;4974728;28;20030;-81
2022/08/13 10:01:07;;;;;;;0.80;0.80;;;;;;;24.47;nan;99518.09;4957553;28;20134;-80
2022/08/13 10:03:38;;;;;;;4.28;1.67;;;;;;;24.56;nan;99516.69;4974956;28;20038;-79
2022/08/13 10:06:07;;;;;;;0.93;0.90;;;;;;;24.59;nan;99518.91;4974300;28;20510;-80
2022/08/13 10:08:34;;;;;;;2.63;0.93;;;;;;;24.61;nan;99511.41;4973608;28;20061;-79
2022/08/13 10:11:01;;;;;;;1.25;1.00;;;;;;;24.63;nan;99506.59;4973623;28;20555;-80
2022/08/13 10:13:28;;;;;;;0.80;0.80;;;;;;;24.68;nan;99508.59;4953139;28;20071;-79
2022/08/13 10:15:54;;;;;;;2.13;1.20;;;;;;;24.75;nan;99511.97;4953075;28;20458;-79
2022/08/13 10:18:20;;;;;;;1.23;1.13;;;;;;;24.81;nan;99503.75;4955268;28;20027;-79
2022/08/13 10:20:48;;;;;;;2.10;1.10;;;;;;;24.80;nan;99507.50;4954329;28;20098;-79
2022/08/13 10:23:16;;;;;;;0.77;0.77;;;;;;;24.82;nan;99489.22;4951593;28;20036;-80
2022/08/13 10:25:44;;;;;;;1.20;1.10;;;;;;;24.87;nan;99492.03;4953565;28;20433;-80
2022/08/13 10:28:14;;;;;;;0.93;0.93;;;;;;;24.92;nan;99485.94;4966525;28;20078;-78
2022/08/13 10:30:42;;;;;;;1.30;0.95;;;;;;;24.96;nan;99489.00;4956926;28;20126;-79
2022/08/13 10:33:08;;;;;;;1.02;1.02;;;;;;;24.98;nan;99492.25;4951822;28;20407;-80
2022/08/13 10:35:34;;;;;;;1.25;1.15;;;;;;;25.02;nan;99485.34;4952392;28;20055;-80
2022/08/13 10:38:00;;;;;;;4.03;1.15;;;;;;;25.08;nan;99481.69;4952333;28;20069;-79
2022/08/13 10:40:26;;;;;;;1.02;1.00;;;;;;;25.13;nan;99473.69;4952893;28;20042;-80
2022/08/13 10:42:53;;;;;;;1.38;1.20;;;;;;;25.18;nan;99476.50;4952678;28;20035;-79
2022/08/13 10:45:20;;;;;;;1.05;0.95;;;;;;;25.17;nan;99466.75;4954084;28;20325;-79
2022/08/13 10:47:47;;;;;;;1.05;1.05;;;;;;;25.18;nan;99463.81;4953345;28;20432;-80
2022/08/13 10:50:14;;;;;;;1.05;0.88;;;;;;;25.26;nan;99451.81;4953043;28;20420;-78
2022/08/13 10:52:40;;;;;;;1.63;1.20;;;;;;;25.40;nan;99458.56;4956124;28;20115;-79
2022/08/13 10:55:15;;;;;;;0.90;0.90;;;;;;;25.53;56.69;99452.88;5084670;28;20385;-79
2022/08/13 10:57:43;;;;;;;1.02;1.00;;;;;;;25.58;56.43;99450.28;5067100;28;20040;-78
2022/08/13 11:00:14;;;;;;;2.05;1.73;;;;;;;25.62;54.94;99446.03;5066389;28;20406;-80
2022/08/13 11:02:41;;;;;;;1.45;0.90;;;;;;;25.64;55.16;99449.31;5066387;28;20068;-79
2022/08/13 11:05:11;;;;;;;2.00;0.98;;;;;;;25.65;55.34;99450.97;5067359;28;20032;-81
2022/08/13 11:07:38;;;;;;;1.75;1.15;;;;;;;25.69;55.04;99446.72;5065118;28;20087;-81
2022/08/13 11:10:09;;;;;;;1.17;1.10;;;;;;;25.72;53.84;99450.00;5096729;28;20093;-80
2022/08/13 11:12:36;;;;;;;1.45;1.35;;;;;;;25.61;53.99;99447.13;5067116;28;20039;-78
2022/08/13 11:15:04;;;;;;;1.40;1.08;;;;;;;25.60;54.48;99444.66;5066214;28;20032;-81
2022/08/13 11:17:29;;;;;;;2.50;1.10;;;;;;;25.65;54.54;99445.56;5068108;28;20086;-80
2022/08/13 11:19:56;;;;;;;1.65;1.02;;;;;;;25.66;53.49;99440.97;5067369;28;20041;-78
2022/08/13 11:22:23;;;;;;;1.13;1.05;;;;;;;25.69;54.17;99440.47;5063846;28;20021;-78
2022/08/13 11:24:49;;;;;;;1.45;1.35;;;;;;;25.77;54.16;99441.97;5094695;28;20037;-78
2022/08/13 11:27:17;;;;;;;1.42;1.10;;;;;;;25.79;53.82;99439.84;5067925;28;20040;-77
2022/08/13 11:29:43;;;;;;;1.63;1.40;;;;;;;25.86;54.74;99429.72;5062110;28;20051;-77
2022/08/13 11:32:09;;;;;;;1.02;0.93;;;;;;;25.94;54.00;99430.13;5066408;28;20098;-79
2022/08/13 11:34:34;;;;;;;1.35;1.10;;;;;;;26.04;53.11;99437.56;5065470;28;20131;-81
2022/08/13 11:37:00;;;;;;;1.15;0.90;;;;;;;26.16;52.17;99435.59;5060620;28;20028;-81
2022/08/13 11:39:26;;;;;;;1.00;1.00;;;;;;;26.22;51.09;99434.59;5066096;28;20060;-81
2022/08/13 11:41:51;;;;;;;2.47;1.27;;;;;;;26.31;51.49;99432.34;5066566;28;20473;-80
2022/08/13 11:44:17;;;;;;;1.38;1.27;;;;;;;26.33;51.51;99433.72;5065213;28;20044;-79
2022/08/13 11:46:43;;;;;;;1.30;1.20;;;;;;;26.35;51.52;99428.88;5065008;28;20108;-79
2022/08/13 11:49:10;;;;;;;1.13;1.10;;;;;;;26.44;51.45;99427.41;5067635;28;20076;-79
2022/08/13 11:51:37;;;;;;;2.28;1.17;;;;;;;26.57;51.11;99420.00;5062421;28;20558;-78
2022/08/13 11:54:03;;;;;;;0.95;0.82;;;;;;;26.73;50.64;99408.31;5067497;28;20072;-79
2022/08/13 11:56:29;;;;;;;1.90;1.42;;;;;;;26.88;52.49;99416.66;5065364;28;20083;-79
2022/08/13 11:58:55;;;;;;;1.45;1.30;;;;;;;27.01;51.50;99416.28;5063683;28;20040;-78
2022/08/13 12:01:25;;;;;;;2.25;1.20;;;;;;;27.04;52.38;99410.34;5064418;28;20381;-80
2022/08/13 12:03:54;;;;;;;2.13;1.33;;;;;;;27.16;51.45;99418.31;5061764;28;20401;-81
2022/08/13 12:06:19;;;;;;;2.08;1.35;;;;;;;27.25;50.76;99406.78;5046614;28;20029;-79
2022/08/13 12:08:46;;;;;;;3.00;1.40;;;;;;;27.37;50.00;99403.13;5053229;28;20090;-80
2022/08/13 12:11:11;;;;;;;1.50;1.40;;;;;;;27.39;48.87;99401.78;5047139;28;20060;-81
2022/08/13 12:13:37;;;;;;;2.95;1.30;;;;;;;27.48;50.40;99404.84;5050562;28;20068;-80